Time;durP1;ratioP1;P1;durP2;ratioP2;P2;SDS_P1;SDS_P2;PMS_P1;PMS_P2;Temp;Humidity;BMP_temperature;BMP_pressure;BME280_temperature;BME280_humidity;BME280_pressure;Samples;Min_cycle;Max_cycle;Signal;HPM_P1;HPM_P2
2023/04/17 00:01:40;;;;;;;1.50;1.40;;;11.10;97.70;;;;;;6301470;28;20565;-64
2023/04/17 00:04:44;;;;;;;1.40;1.30;;;11.10;97.40;;;;;;6301193;28;20489;-64
2023/04/17 00:07:49;;;;;;;1.60;1.23;;;11.10;97.40;;;;;;6301394;28;20480;-66
2023/04/17 00:10:52;;;;;;;1.50;1.40;;;11.20;97.50;;;;;;6301656;28;21078;-65
2023/04/17 00:14:08;;;;;;;1.50;1.40;;;11.20;97.40;;;;;;6301507;28;20482;-65
2023/04/17 00:17:11;;;;;;;1.53;1.43;;;11.20;97.20;;;;;;6301552;28;20496;-64
2023/04/17 00:20:14;;;;;;;1.40;1.30;;;11.20;97.20;;;;;;6301200;28;20477;-65
2023/04/17 00:23:19;;;;;;;1.30;1.20;;;11.20;97.20;;;;;;6300950;28;20958;-65
2023/04/17 00:26:22;;;;;;;1.73;1.63;;;11.20;96.90;;;;;;6301458;28;20473;-65
2023/04/17 00:29:25;;;;;;;1.70;1.60;;;11.10;97.20;;;;;;6301134;28;20955;-65
2023/04/17 00:32:29;;;;;;;1.47;1.37;;;11.20;97.20;;;;;;6301101;28;20481;-65
2023/04/17 00:35:32;;;;;;;1.50;1.40;;;11.10;97.60;;;;;;6300752;28;20476;-65
2023/04/17 00:38:36;;;;;;;1.43;1.33;;;11.10;97.80;;;;;;6296440;28;20477;-65
2023/04/17 00:41:39;;;;;;;1.50;1.40;;;11.10;97.60;;;;;;6300599;28;20485;-64
2023/04/17 00:44:42;;;;;;;1.20;1.10;;;11.10;97.40;;;;;;6300306;28;20469;-65
2023/04/17 00:47:46;;;;;;;1.40;1.30;;;11.10;97.60;;;;;;6300764;28;20469;-65
2023/04/17 00:50:49;;;;;;;1.47;1.30;;;11.20;97.30;;;;;;6300738;28;20476;-65
2023/04/17 00:53:54;;;;;;;1.37;1.27;;;11.20;97.20;;;;;;6300225;28;20905;-64
2023/04/17 00:56:58;;;;;;;1.50;1.40;;;11.30;97.40;;;;;;6300588;28;20479;-64
2023/04/17 01:00:01;;;;;;;2.13;1.93;;;11.10;97.70;;;;;;6300411;28;20492;-64
2023/04/17 01:03:04;;;;;;;1.73;1.63;;;11.20;97.60;;;;;;6300326;28;20442;-65
2023/04/17 01:06:08;;;;;;;3.13;1.57;;;11.20;97.50;;;;;;6300061;28;20450;-65
2023/04/17 01:09:14;;;;;;;1.60;1.50;;;11.20;97.50;;;;;;6300245;28;20476;-65
2023/04/17 01:12:18;;;;;;;2.13;1.53;;;11.20;97.50;;;;;;6300628;28;20563;-65
2023/04/17 01:15:21;;;;;;;1.47;1.37;;;11.10;97.60;;;;;;6299952;28;20470;-65
2023/04/17 01:18:24;;;;;;;1.77;1.67;;;11.10;97.80;;;;;;6300001;28;20476;-65
2023/04/17 01:21:27;;;;;;;1.53;1.43;;;11.10;97.60;;;;;;6299987;28;20476;-65
2023/04/17 01:24:32;;;;;;;1.40;1.30;;;11.10;97.20;;;;;;6299831;28;21095;-65
2023/04/17 01:27:35;;;;;;;1.50;1.40;;;11.10;97.20;;;;;;6299896;28;20465;-65
2023/04/17 01:30:38;;;;;;;1.83;1.60;;;11.10;97.20;;;;;;6300360;28;20481;-65
2023/04/17 01:33:42;;;;;;;1.43;1.33;;;11.20;97.00;;;;;;6300713;28;20544;-65
2023/04/17 01:36:45;;;;;;;1.63;1.47;;;11.20;97.10;;;;;;6299807;28;21066;-65
2023/04/17 01:39:49;;;;;;;1.60;1.50;;;11.20;97.00;;;;;;6299798;28;20530;-65
2023/04/17 01:42:52;;;;;;;1.50;1.40;;;11.20;96.90;;;;;;6294949;28;20465;-65
2023/04/17 01:45:56;;;;;;;2.50;1.60;;;11.20;96.90;;;;;;6299621;28;20976;-64
2023/04/17 01:48:59;;;;;;;1.73;1.63;;;11.20;96.80;;;;;;6299609;28;20530;-64
2023/04/17 01:52:02;;;;;;;1.73;1.63;;;11.20;96.80;;;;;;6299444;28;20465;-64
2023/04/17 01:55:07;;;;;;;1.63;1.53;;;11.20;96.60;;;;;;6299023;28;20546;-65
2023/04/17 01:58:10;;;;;;;1.70;1.60;;;11.20;96.40;;;;;;6299083;28;20491;-65
2023/04/17 02:01:14;;;;;;;1.77;1.67;;;11.30;96.30;;;;;;6299315;28;20817;-64
2023/04/17 02:04:17;;;;;;;1.63;1.53;;;11.30;96.20;;;;;;6299259;28;20473;-64
2023/04/17 02:07:20;;;;;;;1.23;1.23;;;11.30;96.20;;;;;;6299217;28;20477;-65
2023/04/17 02:10:25;;;;;;;1.50;1.40;;;11.40;95.90;;;;;;6299504;28;20530;-64
2023/04/17 02:13:28;;;;;;;1.53;1.43;;;11.30;95.90;;;;;;6299236;28;20477;-64
2023/04/17 02:16:31;;;;;;;1.37;1.27;;;11.30;95.80;;;;;;6298797;28;20971;-65
2023/04/17 02:19:35;;;;;;;1.50;1.40;;;11.30;95.80;;;;;;6301062;28;20507;-65
2023/04/17 02:22:38;;;;;;;1.80;1.70;;;11.30;95.80;;;;;;6304070;28;20479;-64
2023/04/17 02:25:42;;;;;;;1.23;1.20;;;11.40;95.70;;;;;;6304033;28;20487;-65
2023/04/17 02:28:45;;;;;;;1.57;1.40;;;11.40;95.50;;;;;;6303943;28;20465;-64
2023/04/17 02:31:48;;;;;;;1.57;1.47;;;11.40;95.40;;;;;;6304015;28;20465;-64
2023/04/17 02:34:53;;;;;;;1.43;1.33;;;11.40;95.50;;;;;;6303490;28;20488;-64
2023/04/17 02:37:56;;;;;;;1.40;1.30;;;11.30;95.40;;;;;;6303983;28;20548;-64
2023/04/17 02:41:00;;;;;;;1.60;1.50;;;11.40;95.30;;;;;;6304077;28;20488;-65
2023/04/17 02:44:04;;;;;;;1.50;1.33;;;11.40;95.30;;;;;;6304306;28;20477;-64
2023/04/17 02:47:07;;;;;;;1.17;1.07;;;11.40;95.30;;;;;;6303967;28;20483;-64
2023/04/17 02:50:11;;;;;;;1.40;1.30;;;11.30;95.20;;;;;;6294503;28;20476;-64
2023/04/17 02:53:15;;;;;;;1.17;1.10;;;11.30;95.10;;;;;;6303531;28;20971;-64
2023/04/17 02:56:19;;;;;;;1.50;1.40;;;11.30;95.30;;;;;;6303094;28;20464;-64
2023/04/17 02:59:22;;;;;;;1.47;1.27;;;11.30;95.10;;;;;;6303284;28;20481;-64
2023/04/17 03:02:25;;;;;;;1.40;1.30;;;11.40;95.10;;;;;;6302776;28;20481;-64
2023/04/17 03:05:30;;;;;;;1.83;1.30;;;11.30;95.10;;;;;;6303077;28;20481;-64
2023/04/17 03:08:34;;;;;;;2.77;1.20;;;11.30;95.10;;;;;;6303005;28;20472;-65
2023/04/17 03:11:39;;;;;;;1.23;1.13;;;11.40;95.10;;;;;;6302830;28;20476;-65
2023/04/17 03:14:43;;;;;;;1.60;1.50;;;11.40;95.10;;;;;;6302652;28;20483;-65
2023/04/17 03:17:49;;;;;;;1.03;1.03;;;11.40;95.00;;;;;;6302908;28;20480;-66
2023/04/17 03:20:52;;;;;;;2.97;1.40;;;11.40;95.00;;;;;;6302845;28;20476;-66
2023/04/17 03:23:56;;;;;;;1.60;1.20;;;11.40;94.90;;;;;;6302801;28;20468;-65
2023/04/17 03:27:01;;;;;;;1.40;1.30;;;11.40;94.90;;;;;;6302976;28;20445;-66
2023/04/17 03:30:04;;;;;;;1.37;1.23;;;11.40;94.90;;;;;;6302316;28;20444;-66
2023/04/17 03:33:07;;;;;;;1.00;1.00;;;11.40;94.70;;;;;;6302440;28;20448;-66
2023/04/17 03:36:11;;;;;;;1.63;1.53;;;11.40;94.90;;;;;;6307230;28;20445;-66
2023/04/17 03:39:14;;;;;;;1.27;1.17;;;11.40;94.90;;;;;;6305388;28;20453;-65
2023/04/17 03:42:18;;;;;;;1.20;1.00;;;11.40;94.80;;;;;;6304708;28;20803;-66
2023/04/17 03:45:21;;;;;;;1.30;1.20;;;11.40;94.80;;;;;;6302213;28;20488;-65
2023/04/17 03:48:24;;;;;;;1.50;1.40;;;11.40;94.90;;;;;;6304608;28;20855;-65
2023/04/17 03:51:27;;;;;;;1.47;1.37;;;11.50;95.00;;;;;;6303180;28;20799;-65
2023/04/17 03:54:34;;;;;;;2.67;1.70;;;11.50;95.10;;;;;;6301705;28;20477;-65
2023/04/17 03:57:39;;;;;;;1.60;1.50;;;11.40;95.00;;;;;;6301458;28;20622;-66
2023/04/17 04:00:44;;;;;;;1.80;1.70;;;11.50;95.00;;;;;;6302216;28;20480;-66
2023/04/17 04:03:47;;;;;;;1.37;1.27;;;11.40;95.60;;;;;;6301937;28;20484;-65
2023/04/17 04:06:53;;;;;;;1.60;1.50;;;11.40;96.30;;;;;;6301875;28;20468;-66
2023/04/17 04:09:56;;;;;;;1.37;1.27;;;11.40;95.90;;;;;;6301468;28;20476;-65
2023/04/17 04:13:01;;;;;;;2.50;1.50;;;11.40;95.90;;;;;;6301323;28;20952;-65
2023/04/17 04:16:04;;;;;;;1.30;1.20;;;11.40;95.70;;;;;;6301624;28;20465;-65
2023/04/17 04:19:07;;;;;;;1.60;1.50;;;11.40;95.70;;;;;;6301413;28;20469;-65
2023/04/17 04:22:12;;;;;;;1.50;1.40;;;11.40;95.90;;;;;;6301230;28;20932;-65
2023/04/17 04:25:16;;;;;;;1.50;1.30;;;11.40;95.60;;;;;;6301136;28;20782;-65
2023/04/17 04:28:22;;;;;;;1.40;1.30;;;11.40;95.50;;;;;;6301170;28;20481;-65
2023/04/17 04:31:28;;;;;;;1.90;1.30;;;11.50;95.20;;;;;;6301388;28;20469;-66
2023/04/17 04:34:31;;;;;;;1.60;1.33;;;11.50;95.20;;;;;;6300778;28;20823;-66
2023/04/17 04:37:35;;;;;;;1.37;1.27;;;11.50;95.10;;;;;;6301051;28;20476;-65
2023/04/17 04:40:38;;;;;;;1.43;1.33;;;11.50;95.00;;;;;;6300154;28;20964;-65
2023/04/17 04:43:42;;;;;;;2.23;2.03;;;11.50;95.00;;;;;;6299964;28;20473;-66
2023/04/17 04:46:46;;;;;;;1.60;1.50;;;11.50;95.00;;;;;;6300337;28;20538;-66
2023/04/17 04:49:49;;;;;;;1.30;1.20;;;11.60;95.00;;;;;;6300413;28;20968;-66
2023/04/17 04:52:53;;;;;;;1.87;1.77;;;11.60;94.80;;;;;;6300314;28;20793;-66
2023/04/17 04:55:56;;;;;;;1.30;1.20;;;11.70;94.70;;;;;;6300649;28;20473;-66
2023/04/17 04:59:00;;;;;;;1.57;1.47;;;11.60;94.60;;;;;;6299849;28;20800;-66
2023/04/17 05:02:03;;;;;;;2.50;1.50;;;11.70;94.70;;;;;;6295623;28;20569;-66
2023/04/17 05:05:09;;;;;;;1.60;1.50;;;11.70;94.70;;;;;;6299886;28;20488;-66
2023/04/17 05:08:12;;;;;;;2.50;1.50;;;11.70;94.80;;;;;;6300364;28;20461;-66
2023/04/17 05:11:15;;;;;;;1.83;1.70;;;11.70;94.60;;;;;;6300066;28;20480;-66
2023/04/17 05:14:20;;;;;;;1.30;1.20;;;11.70;94.40;;;;;;6300114;28;20481;-66
2023/04/17 05:17:23;;;;;;;1.63;1.53;;;11.70;94.60;;;;;;6300013;28;20476;-66
2023/04/17 05:20:26;;;;;;;2.30;1.63;;;11.80;94.50;;;;;;6299743;28;20796;-66
2023/04/17 05:23:29;;;;;;;2.23;2.03;;;11.80;94.40;;;;;;6299726;28;20477;-66
2023/04/17 05:26:33;;;;;;;2.43;1.80;;;11.80;94.40;;;;;;6299623;28;20986;-66
2023/04/17 05:29:37;;;;;;;2.70;2.07;;;11.80;94.40;;;;;;6299824;28;20477;-66
2023/04/17 05:32:40;;;;;;;2.20;1.60;;;11.80;94.40;;;;;;6299496;28;20991;-66
2023/04/17 05:35:45;;;;;;;1.33;1.23;;;11.90;94.40;;;;;;6299481;28;20464;-66
2023/04/17 05:38:48;;;;;;;1.70;1.60;;;11.90;94.20;;;;;;6299532;28;20469;-65
2023/04/17 05:41:51;;;;;;;2.63;1.90;;;11.90;94.20;;;;;;6299052;28;20469;-65
2023/04/17 05:44:56;;;;;;;2.67;1.70;;;11.90;94.40;;;;;;6319273;28;20464;-65
2023/04/17 05:47:59;;;;;;;2.53;2.00;;;11.90;94.70;;;;;;6322682;28;20918;-65
2023/04/17 05:51:05;;;;;;;2.13;1.80;;;12.00;94.30;;;;;;6296267;28;20486;-66
2023/04/17 05:54:08;;;;;;;4.43;2.10;;;12.00;94.40;;;;;;6297275;28;20744;-66
2023/04/17 05:57:11;;;;;;;2.63;1.70;;;12.00;94.60;;;;;;6296997;28;20912;-66
2023/04/17 06:00:17;;;;;;;2.10;1.80;;;12.10;94.20;;;;;;6299354;28;20461;-66
2023/04/17 06:03:20;;;;;;;3.70;1.80;;;12.10;94.30;;;;;;6297761;28;20484;-66
2023/04/17 06:06:24;;;;;;;2.10;2.00;;;12.20;94.20;;;;;;6296387;28;20464;-66
2023/04/17 06:09:27;;;;;;;2.10;2.00;;;12.20;94.20;;;;;;6297060;28;20465;-66
2023/04/17 06:12:30;;;;;;;6.00;2.17;;;12.30;94.00;;;;;;6299293;28;20465;-67
2023/04/17 06:15:35;;;;;;;3.80;2.00;;;12.40;93.90;;;;;;6298890;28;20480;-66
2023/04/17 06:18:38;;;;;;;2.10;2.00;;;12.50;93.80;;;;;;6296329;28;20461;-66
2023/04/17 06:21:42;;;;;;;2.40;2.20;;;12.50;93.40;;;;;;6297438;28;20473;-66
2023/04/17 06:24:45;;;;;;;2.10;1.90;;;12.60;93.50;;;;;;6299032;28;20469;-66
2023/04/17 06:27:48;;;;;;;2.13;1.90;;;12.70;93.50;;;;;;6299137;28;20964;-66
2023/04/17 06:30:52;;;;;;;1.93;1.80;;;12.70;93.30;;;;;;6299053;28;20496;-66
2023/04/17 06:33:56;;;;;;;2.13;1.80;;;12.90;93.10;;;;;;6299041;28;20465;-66
2023/04/17 06:36:59;;;;;;;1.70;1.60;;;13.00;93.10;;;;;;6299274;28;20472;-66
2023/04/17 06:40:02;;;;;;;2.00;1.90;;;13.00;92.90;;;;;;6299084;28;20465;-66
2023/04/17 06:43:05;;;;;;;1.80;1.40;;;13.10;92.90;;;;;;6299198;28;20481;-66
2023/04/17 06:46:10;;;;;;;2.57;1.90;;;13.10;92.50;;;;;;6299084;28;20469;-65
2023/04/17 06:49:13;;;;;;;2.50;1.30;;;13.10;92.40;;;;;;6298512;28;20960;-66
2023/04/17 06:52:19;;;;;;;2.43;1.70;;;13.30;92.30;;;;;;6298642;28;20964;-66
2023/04/17 06:55:22;;;;;;;2.80;1.93;;;13.40;92.20;;;;;;6299374;28;20477;-65
2023/04/17 06:58:25;;;;;;;2.17;2.00;;;13.50;91.90;;;;;;6298607;28;20477;-66
2023/04/17 07:01:30;;;;;;;1.70;1.60;;;13.80;91.70;;;;;;6298554;28;20461;-66
2023/04/17 07:04:33;;;;;;;3.63;1.60;;;14.00;91.10;;;;;;6299664;28;20461;-66
2023/04/17 07:07:36;;;;;;;1.83;1.73;;;14.20;90.70;;;;;;6302955;28;20515;-65
2023/04/17 07:10:39;;;;;;;2.23;1.60;;;14.30;90.50;;;;;;6302668;28;20817;-66
2023/04/17 07:13:43;;;;;;;3.70;1.70;;;14.50;90.10;;;;;;6303139;28;20472;-65
2023/04/17 07:16:47;;;;;;;1.70;1.40;;;14.80;90.00;;;;;;6302515;28;20481;-65
2023/04/17 07:19:50;;;;;;;1.40;1.30;;;15.30;88.60;;;;;;6309904;28;20599;-65
2023/04/17 07:22:54;;;;;;;3.07;1.63;;;15.60;86.80;;;;;;6305966;28;20473;-66
2023/04/17 07:25:57;;;;;;;1.40;1.30;;;16.00;85.60;;;;;;6301884;28;20825;-66
2023/04/17 07:29:00;;;;;;;1.60;1.50;;;16.30;84.30;;;;;;6301932;28;20476;-67
2023/04/17 07:32:05;;;;;;;2.00;1.77;;;16.40;83.60;;;;;;6290582;28;20472;-66
2023/04/17 07:35:09;;;;;;;3.13;1.97;;;16.50;84.00;;;;;;6300431;28;20468;-67
2023/04/17 07:38:12;;;;;;;2.20;1.93;;;16.50;84.40;;;;;;6301355;28;20486;-68
2023/04/17 07:41:15;;;;;;;4.37;2.00;;;16.40;85.20;;;;;;6301890;28;20476;-71
2023/04/17 07:44:19;;;;;;;2.50;1.93;;;16.40;84.40;;;;;;6301243;28;20488;-66
2023/04/17 07:47:24;;;;;;;2.77;2.57;;;16.40;84.80;;;;;;6301734;28;20480;-69
2023/04/17 07:50:27;;;;;;;3.70;2.20;;;16.50;84.30;;;;;;6301712;28;20501;-69
2023/04/17 07:53:30;;;;;;;3.03;2.30;;;16.50;82.60;;;;;;6301802;28;20473;-69
2023/04/17 07:56:35;;;;;;;4.13;2.00;;;16.60;82.00;;;;;;6301122;28;20473;-66
2023/04/17 07:59:38;;;;;;;2.33;1.60;;;16.60;81.10;;;;;;6300860;28;20808;-67
2023/04/17 08:02:43;;;;;;;2.50;1.93;;;16.70;81.60;;;;;;6300317;28;20818;-66
2023/04/17 08:05:46;;;;;;;4.60;2.87;;;16.90;81.00;;;;;;6301068;28;20507;-66
2023/04/17 08:08:50;;;;;;;2.17;2.07;;;17.10;79.80;;;;;;6301195;28;20538;-67
2023/04/17 08:11:53;;;;;;;3.50;2.37;;;17.20;78.60;;;;;;6301252;28;20465;-70
2023/04/17 08:15:00;;;;;;;1.57;1.47;;;17.20;77.60;;;;;;6301576;28;20619;-69
2023/04/17 08:18:04;;;;;;;2.27;1.90;;;17.00;77.40;;;;;;6301237;28;20476;-67
2023/04/17 08:21:08;;;;;;;2.50;2.13;;;16.80;77.60;;;;;;6302127;28;20438;-68
2023/04/17 08:24:11;;;;;;;3.30;1.93;;;16.70;78.10;;;;;;6300972;28;20792;-67
2023/04/17 08:27:14;;;;;;;2.67;1.60;;;16.60;78.10;;;;;;6300997;28;20437;-69
2023/04/17 08:30:19;;;;;;;1.80;1.70;;;16.40;78.30;;;;;;6300717;28;20461;-68
2023/04/17 08:33:23;;;;;;;1.77;1.53;;;16.30;78.30;;;;;;6301709;28;20473;-70
2023/04/17 08:36:27;;;;;;;2.07;1.87;;;16.20;78.30;;;;;;6300546;28;20473;-69
2023/04/17 08:39:30;;;;;;;2.80;1.63;;;16.20;78.90;;;;;;6301457;28;20469;-69
2023/04/17 08:42:35;;;;;;;1.60;1.50;;;16.30;78.90;;;;;;6311443;28;20485;-68
2023/04/17 08:45:43;;;;;;;3.60;1.97;;;16.40;78.90;;;;;;6350975;28;20468;-68
2023/04/17 08:48:48;;;;;;;1.77;1.63;;;16.40;78.10;;;;;;6351350;28;20472;-70
2023/04/17 08:51:54;;;;;;;2.13;2.00;;;16.40;78.30;;;;;;6350638;28;20467;-69
2023/04/17 08:54:57;;;;;;;1.70;1.60;;;16.50;78.40;;;;;;6351049;28;20479;-68
2023/04/17 08:58:02;;;;;;;1.70;1.60;;;16.50;78.40;;;;;;6350438;28;20483;-68
2023/04/17 09:01:10;;;;;;;2.50;2.20;;;16.60;77.60;;;;;;6323972;28;20485;-68
2023/04/17 09:04:35;;;;;;;2.33;2.13;;;16.70;77.90;;;;;;6300032;28;20485;-68
2023/04/17 09:07:43;;;;;;;2.43;2.10;;;16.80;77.00;;;;;;6300171;28;20507;-71
2023/04/17 09:10:47;;;;;;;2.30;2.13;;;17.00;76.60;;;;;;6300002;28;20470;-68
2023/04/17 09:13:51;;;;;;;2.10;1.90;;;17.10;75.60;;;;;;6299586;28;20465;-66
2023/04/17 09:16:54;;;;;;;2.13;2.03;;;17.30;74.60;;;;;;6291560;28;20476;-67
2023/04/17 09:20:08;;;;;;;2.70;2.10;;;17.40;73.70;;;;;;6299971;28;20473;-68
2023/04/17 09:23:11;;;;;;;2.80;2.20;;;17.60;74.00;;;;;;6299373;28;20542;-68
2023/04/17 09:26:16;;;;;;;2.27;2.07;;;17.90;72.40;;;;;;6295579;28;20519;-68
2023/04/17 09:29:20;;;;;;;2.60;2.40;;;18.00;71.60;;;;;;6305104;28;20823;-69
2023/04/17 09:32:23;;;;;;;2.63;2.43;;;18.20;71.60;;;;;;6341460;28;20474;-70
2023/04/17 09:35:27;;;;;;;3.43;2.30;;;18.60;70.40;;;;;;6329140;28;20460;-69
2023/04/17 09:38:38;;;;;;;2.30;2.13;;;19.10;68.00;;;;;;6330312;28;20506;-68
2023/04/17 09:41:42;;;;;;;3.00;2.80;;;19.30;67.10;;;;;;6323622;28;20225;-67
2023/04/17 09:44:48;;;;;;;3.03;2.83;;;19.40;65.80;;;;;;6323918;28;20222;-70
2023/04/17 09:47:54;;;;;;;2.80;2.60;;;19.50;64.90;;;;;;6299367;28;20237;-67
2023/04/17 09:51:00;;;;;;;3.30;3.10;;;19.40;64.50;;;;;;6295788;28;21433;-67
2023/04/17 09:54:05;;;;;;;3.50;3.27;;;19.40;64.50;;;;;;6320897;28;20276;-67
2023/04/17 09:57:10;;;;;;;4.23;3.83;;;19.50;64.30;;;;;;6322076;28;20226;-68
2023/04/17 10:00:16;;;;;;;5.10;4.70;;;19.80;64.30;;;;;;6324329;28;20213;-66
2023/04/17 10:03:19;;;;;;;5.60;5.20;;;20.10;62.00;;;;;;6323334;28;20230;-69
2023/04/17 10:06:25;;;;;;;8.10;5.67;;;20.10;60.70;;;;;;6322643;28;20234;-68
2023/04/17 10:09:28;;;;;;;6.57;6.07;;;19.80;59.80;;;;;;6324236;28;20241;-65
2023/04/17 10:12:31;;;;;;;5.80;5.30;;;19.60;60.90;;;;;;6323464;28;20237;-66
2023/04/17 10:15:37;;;;;;;4.43;4.03;;;19.40;61.90;;;;;;6324196;28;20238;-66
2023/04/17 10:18:40;;;;;;;5.87;5.37;;;19.40;62.30;;;;;;6323521;28;20687;-67
2023/04/17 10:21:49;;;;;;;4.40;4.10;;;19.20;61.10;;;;;;6323714;28;20529;-66
2023/04/17 10:25:19;;;;;;;5.27;4.87;;;18.70;63.10;;;;;;6321972;28;20234;-67
2023/04/17 10:28:47;;;;;;;5.23;4.73;;;18.70;62.50;;;;;;6324040;28;20226;-67
2023/04/17 10:32:13;;;;;;;5.87;5.37;;;19.00;64.00;;;;;;6318767;28;20229;-66
2023/04/17 10:35:36;;;;;;;5.10;4.70;;;19.10;62.40;;;;;;6321038;28;20218;-67
2023/04/17 10:38:43;;;;;;;4.67;4.27;;;19.10;63.20;;;;;;6321367;28;20592;-66
2023/04/17 10:42:02;;;;;;;5.17;4.77;;;19.00;63.70;;;;;;6327665;28;20241;-67
2023/04/17 10:45:19;;;;;;;5.40;4.90;;;18.90;62.30;;;;;;6303060;28;20304;-67
2023/04/17 10:48:26;;;;;;;5.20;4.77;;;18.90;62.50;;;;;;6326773;28;20238;-67
2023/04/17 10:51:47;;;;;;;4.60;4.20;;;18.70;62.20;;;;;;6325902;28;20222;-67
2023/04/17 10:55:07;;;;;;;4.63;4.23;;;18.60;63.60;;;;;;6327661;28;20291;-66
2023/04/17 10:58:14;;;;;;;5.23;4.77;;;18.40;63.90;;;;;;6326091;28;20307;-66
2023/04/17 11:01:17;;;;;;;5.27;4.77;;;18.50;64.70;;;;;;6325743;28;20222;-66
2023/04/17 11:04:21;;;;;;;5.80;5.20;;;18.70;64.90;;;;;;6327465;28;20671;-66
2023/04/17 11:07:26;;;;;;;4.70;4.30;;;18.80;63.40;;;;;;6327327;28;20230;-66
2023/04/17 11:10:34;;;;;;;4.53;4.23;;;18.90;62.70;;;;;;6327210;28;20225;-66
2023/04/17 11:13:40;;;;;;;4.77;4.37;;;18.90;62.20;;;;;;6323996;28;20230;-68
2023/04/17 11:16:45;;;;;;;4.80;4.50;;;19.00;62.30;;;;;;6312465;28;20238;-67
2023/04/17 11:19:49;;;;;;;5.50;4.53;;;19.30;61.50;;;;;;6302323;28;20283;-68
2023/04/17 11:22:53;;;;;;;8.03;5.60;;;19.50;61.40;;;;;;6302200;28;20237;-68
2023/04/17 11:25:57;;;;;;;6.27;5.70;;;20.00;61.10;;;;;;6301796;28;20227;-68
2023/04/17 11:29:02;;;;;;;6.50;6.00;;;20.40;59.20;;;;;;6302587;28;20228;-68
2023/04/17 11:32:10;;;;;;;5.97;5.43;;;20.70;57.80;;;;;;6301738;28;20690;-68
2023/04/17 11:35:13;;;;;;;7.20;5.97;;;20.80;58.00;;;;;;6321004;28;20677;-68
2023/04/17 11:38:20;;;;;;;7.27;6.63;;;20.80;57.00;;;;;;6322845;28;20222;-68
2023/04/17 11:41:35;;;;;;;6.50;5.90;;;20.80;56.90;;;;;;6302132;28;20227;-69
2023/04/17 11:44:43;;;;;;;6.77;6.27;;;20.90;56.80;;;;;;6289612;28;20232;-68
2023/04/17 11:47:47;;;;;;;6.43;5.83;;;20.70;56.70;;;;;;6277074;28;20246;-69
2023/04/17 11:50:55;;;;;;;7.03;6.43;;;20.70;56.20;;;;;;6276471;28;20675;-68
2023/04/17 11:53:58;;;;;;;6.83;6.33;;;21.10;57.30;;;;;;6276451;28;20227;-68
2023/04/17 11:57:04;;;;;;;6.10;5.60;;;21.70;56.00;;;;;;6326529;28;20551;-68
2023/04/17 12:00:15;;;;;;;7.40;6.90;;;22.20;53.50;;;;;;6325063;28;20513;-68
2023/04/17 12:03:35;;;;;;;7.83;6.60;;;22.20;52.70;;;;;;6301099;28;20224;-69
2023/04/17 12:06:39;;;;;;;6.97;6.40;;;22.00;52.90;;;;;;6306749;28;20314;-67
2023/04/17 12:09:42;;;;;;;7.90;7.30;;;21.80;53.60;;;;;;6320107;28;20234;-68
2023/04/17 12:12:47;;;;;;;7.67;7.00;;;21.70;52.80;;;;;;6308237;28;20295;-67
2023/04/17 12:15:51;;;;;;;6.90;6.33;;;21.70;53.80;;;;;;6318579;28;20231;-67
2023/04/17 12:18:55;;;;;;;6.37;5.77;;;22.00;52.20;;;;;;6299801;28;20306;-68
2023/04/17 12:21:59;;;;;;;5.90;5.50;;;22.00;50.40;;;;;;6299368;28;20230;-69
2023/04/17 12:25:02;;;;;;;5.90;5.50;;;21.90;50.60;;;;;;6300526;28;20227;-68
2023/04/17 12:28:07;;;;;;;5.83;5.27;;;22.10;49.00;;;;;;6300719;28;20228;-68
2023/04/17 12:31:13;;;;;;;6.93;6.23;;;22.10;49.00;;;;;;6299781;28;20233;-67
2023/04/17 12:34:16;;;;;;;5.97;5.57;;;22.10;48.50;;;;;;6300481;28;20675;-69
2023/04/17 12:37:19;;;;;;;5.67;5.27;;;22.10;47.90;;;;;;6300647;28;20234;-68
2023/04/17 12:40:24;;;;;;;6.43;5.40;;;22.10;47.80;;;;;;6300108;28;20246;-66
2023/04/17 12:43:28;;;;;;;5.67;5.20;;;22.20;48.60;;;;;;6300548;28;20235;-68
2023/04/17 12:46:31;;;;;;;6.83;6.20;;;22.10;48.00;;;;;;6300274;28;20306;-67
2023/04/17 12:49:37;;;;;;;6.00;5.50;;;21.80;48.10;;;;;;6300381;28;20227;-68
2023/04/17 12:52:41;;;;;;;5.70;5.30;;;21.50;48.30;;;;;;6300114;28;20512;-67
2023/04/17 12:55:44;;;;;;;6.00;5.50;;;21.30;47.60;;;;;;6299858;28;20318;-68
2023/04/17 12:58:49;;;;;;;5.67;5.17;;;21.30;48.90;;;;;;6300066;28;20703;-68
2023/04/17 13:01:52;;;;;;;6.40;5.80;;;21.40;48.30;;;;;;6299406;28;20302;-70
2023/04/17 13:04:56;;;;;;;6.10;5.60;;;21.50;47.80;;;;;;6299760;28;20297;-69
2023/04/17 13:07:59;;;;;;;6.97;6.47;;;21.50;47.70;;;;;;6299896;28;20238;-69
2023/04/17 13:11:03;;;;;;;6.23;5.73;;;21.30;47.80;;;;;;6300143;28;20265;-69
2023/04/17 13:14:08;;;;;;;6.13;5.63;;;21.20;48.20;;;;;;6299341;28;20571;-69
2023/04/17 13:17:13;;;;;;;5.60;5.13;;;21.10;48.70;;;;;;6299571;28;20226;-71
2023/04/17 13:20:19;;;;;;;5.83;5.33;;;21.30;48.60;;;;;;6299176;28;20226;-70
2023/04/17 13:23:22;;;;;;;6.03;5.53;;;21.30;47.60;;;;;;6299512;28;20324;-71
2023/04/17 13:26:25;;;;;;;5.60;5.20;;;21.40;47.70;;;;;;6298614;28;20239;-69
2023/04/17 13:29:30;;;;;;;5.87;5.37;;;21.40;47.30;;;;;;6298007;28;20249;-71
2023/04/17 13:32:34;;;;;;;5.70;5.10;;;21.30;46.60;;;;;;6299242;28;20227;-68
2023/04/17 13:35:37;;;;;;;6.53;6.03;;;21.20;47.40;;;;;;6299509;28;20239;-69
2023/04/17 13:38:40;;;;;;;5.40;4.90;;;20.90;47.20;;;;;;6299230;28;20306;-68
2023/04/17 13:41:44;;;;;;;6.90;6.30;;;20.80;48.20;;;;;;6298959;28;20227;-69
2023/04/17 13:44:49;;;;;;;7.20;6.57;;;20.90;49.00;;;;;;6299105;28;20257;-70
2023/04/17 13:47:52;;;;;;;6.77;6.17;;;21.00;49.60;;;;;;6299173;28;20334;-69
2023/04/17 13:50:55;;;;;;;6.80;6.17;;;21.10;50.50;;;;;;6299754;28;20288;-70
2023/04/17 13:53:59;;;;;;;5.97;5.37;;;20.90;48.60;;;;;;6298918;28;20245;-69
2023/04/17 13:57:02;;;;;;;5.70;5.30;;;20.90;48.70;;;;;;6321476;28;20245;-68
2023/04/17 14:00:09;;;;;;;6.37;5.73;;;20.60;48.70;;;;;;6323919;28;20206;-70
2023/04/17 14:03:12;;;;;;;6.03;5.60;;;20.50;48.40;;;;;;6324055;28;20708;-69
2023/04/17 14:06:17;;;;;;;6.43;5.90;;;20.40;48.30;;;;;;6324365;28;20236;-70
2023/04/17 14:09:20;;;;;;;6.60;5.63;;;20.50;49.80;;;;;;6324403;28;20246;-70
2023/04/17 14:12:24;;;;;;;5.50;5.03;;;20.50;49.70;;;;;;6324293;28;20295;-69
2023/04/17 14:15:30;;;;;;;5.97;5.40;;;20.50;48.60;;;;;;6328129;28;20240;-69
2023/04/17 14:18:34;;;;;;;5.57;5.17;;;20.20;47.80;;;;;;6329448;28;20237;-68
2023/04/17 14:21:37;;;;;;;6.90;6.30;;;20.10;48.50;;;;;;6329529;28;20241;-70
2023/04/17 14:24:40;;;;;;;5.63;5.13;;;19.90;49.20;;;;;;6329358;28;20245;-69
2023/04/17 14:27:43;;;;;;;5.90;5.40;;;19.70;49.20;;;;;;6328891;28;20241;-69
2023/04/17 14:30:48;;;;;;;6.47;5.97;;;19.70;50.70;;;;;;6328796;28;20241;-70
2023/04/17 14:33:51;;;;;;;5.13;4.73;;;19.60;51.00;;;;;;6328886;28;20234;-70
2023/04/17 14:36:54;;;;;;;6.23;5.63;;;19.60;50.20;;;;;;6328992;28;20230;-68
2023/04/17 14:40:00;;;;;;;5.57;5.17;;;19.50;50.20;;;;;;6328818;28;20249;-71
2023/04/17 14:43:03;;;;;;;5.87;5.47;;;19.40;50.30;;;;;;6328569;28;20315;-70
2023/04/17 14:46:08;;;;;;;5.90;5.40;;;19.30;50.80;;;;;;6329053;28;20312;-69
2023/04/17 14:49:11;;;;;;;5.60;5.10;;;19.30;50.90;;;;;;6328913;28;20237;-70
2023/04/17 14:52:14;;;;;;;6.50;5.90;;;19.30;50.50;;;;;;6329886;28;20378;-69
2023/04/17 14:55:17;;;;;;;5.40;4.93;;;19.30;50.90;;;;;;6329005;28;20226;-70
2023/04/17 14:58:20;;;;;;;5.40;5.00;;;19.30;50.90;;;;;;6326382;28;20560;-69
2023/04/17 15:01:25;;;;;;;4.90;4.50;;;19.30;50.20;;;;;;6323545;28;20558;-69
2023/04/17 15:04:28;;;;;;;5.60;5.20;;;19.20;50.00;;;;;;6328095;28;20245;-71
2023/04/17 15:07:32;;;;;;;5.93;4.80;;;19.30;51.00;;;;;;6328260;28;20237;-70
2023/04/17 15:10:36;;;;;;;5.63;5.13;;;19.20;50.00;;;;;;6327757;28;20249;-70
2023/04/17 15:13:52;;;;;;;5.97;5.50;;;19.30;50.50;;;;;;6327905;28;20233;-71
2023/04/17 15:16:57;;;;;;;4.97;4.60;;;19.30;50.80;;;;;;6328022;28;20225;-69
2023/04/17 15:20:01;;;;;;;5.80;5.40;;;19.10;49.80;;;;;;6327834;28;20241;-71
2023/04/17 15:23:04;;;;;;;5.17;4.67;;;19.10;50.40;;;;;;6327365;28;20230;-69
2023/04/17 15:26:07;;;;;;;4.20;3.90;;;19.10;50.60;;;;;;6326215;28;20218;-70
2023/04/17 15:29:11;;;;;;;5.77;5.27;;;19.10;50.70;;;;;;6327099;28;20222;-69
2023/04/17 15:32:16;;;;;;;4.20;3.60;;;19.20;51.20;;;;;;6326959;28;20673;-72
2023/04/17 15:35:19;;;;;;;4.60;4.20;;;19.20;50.30;;;;;;6327043;28;20230;-70
2023/04/17 15:38:22;;;;;;;4.63;4.20;;;19.00;50.60;;;;;;6327385;28;20243;-70
2023/04/17 15:41:26;;;;;;;5.23;4.40;;;18.90;51.20;;;;;;6327264;28;20226;-71
2023/04/17 15:44:29;;;;;;;4.80;4.50;;;18.90;50.80;;;;;;6326803;28;20226;-70
2023/04/17 15:47:33;;;;;;;5.20;4.73;;;18.90;51.40;;;;;;6327304;28;20241;-69
2023/04/17 15:50:36;;;;;;;4.20;3.90;;;18.80;50.50;;;;;;6326811;28;20234;-69
2023/04/17 15:53:39;;;;;;;4.13;3.83;;;18.70;50.90;;;;;;6326944;28;20245;-69
2023/04/17 15:56:43;;;;;;;5.20;4.80;;;18.70;51.30;;;;;;6326730;28;20278;-70
2023/04/17 15:59:46;;;;;;;4.50;4.10;;;18.70;51.10;;;;;;6326698;28;20226;-68
2023/04/17 16:02:50;;;;;;;4.00;3.60;;;18.60;51.30;;;;;;6325843;28;20218;-68